createdAt,value
2018-08-24T00:00:51.394Z,20.00
2018-08-24T00:03:22.915Z,19.70
2018-08-24T00:05:54.236Z,19.50
2018-08-24T00:08:25.669Z,19.40
2018-08-24T00:10:57.152Z,19.30
2018-08-24T00:13:28.332Z,19.30
2018-08-24T00:15:59.658Z,19.20
2018-08-24T00:18:31.179Z,19.10
2018-08-24T00:21:02.548Z,18.90
2018-08-24T00:23:33.925Z,18.80
2018-08-24T00:26:04.963Z,18.70
2018-08-24T00:28:36.037Z,18.70
2018-08-24T00:31:07.583Z,18.50
2018-08-24T00:33:38.679Z,18.50
2018-08-24T00:36:09.726Z,18.30
2018-08-24T00:38:40.884Z,18.20
2018-08-24T00:41:12.139Z,18.10
2018-08-24T00:43:43.279Z,18.10
2018-08-24T00:46:14.493Z,18.10
2018-08-24T00:48:45.874Z,18.00
2018-08-24T00:51:16.896Z,17.90
2018-08-24T00:53:48.063Z,17.90
2018-08-24T00:56:19.016Z,17.90
2018-08-24T00:58:50.117Z,17.80
2018-08-24T01:01:21.358Z,17.90
2018-08-24T01:03:52.846Z,17.80
2018-08-24T01:06:25.583Z,17.70
2018-08-24T01:08:56.741Z,17.70
2018-08-24T01:11:32.550Z,17.70
2018-08-24T01:14:03.888Z,17.70
2018-08-24T01:16:39.514Z,17.50
2018-08-24T01:19:10.782Z,17.50
2018-08-24T01:21:42.323Z,17.50
2018-08-24T01:24:13.425Z,17.40
2018-08-24T01:26:48.805Z,17.40
2018-08-24T01:29:19.800Z,17.30
2018-08-24T01:31:50.872Z,17.30
2018-08-24T01:34:22.018Z,17.30
2018-08-24T01:36:53.430Z,17.30
2018-08-24T01:39:24.499Z,17.30
2018-08-24T01:41:55.474Z,17.20
2018-08-24T01:44:26.838Z,17.20
2018-08-24T01:46:57.866Z,17.10
2018-08-24T01:49:29.204Z,17.10
2018-08-24T01:52:00.475Z,17.00
2018-08-24T01:54:31.432Z,17.00
2018-08-24T01:57:02.319Z,16.90
2018-08-24T01:59:33.236Z,17.00
2018-08-24T02:02:04.506Z,17.00
2018-08-24T02:04:35.497Z,16.90
2018-08-24T02:07:06.400Z,16.80
2018-08-24T02:09:37.290Z,16.70
2018-08-24T02:12:12.271Z,16.70
2018-08-24T02:14:43.555Z,16.70
2018-08-24T02:17:19.281Z,16.70
2018-08-24T02:19:54.908Z,16.70
2018-08-24T02:22:25.994Z,16.60
2018-08-24T02:24:56.961Z,16.60
2018-08-24T02:27:27.894Z,16.60
2018-08-24T02:32:25.578Z,16.60
2018-08-24T02:34:59.974Z,16.60
2018-08-24T02:37:31.775Z,16.60
2018-08-24T02:40:02.998Z,16.60
2018-08-24T02:42:33.999Z,16.60
2018-08-24T02:45:05.113Z,16.60
2018-08-24T02:47:36.121Z,16.60
2018-08-24T02:50:07.489Z,16.70
2018-08-24T02:52:38.478Z,16.60
2018-08-24T02:55:09.895Z,16.70
2018-08-24T02:57:41.718Z,16.70
2018-08-24T03:00:12.822Z,16.60
2018-08-24T03:02:43.838Z,16.60
2018-08-24T03:05:14.842Z,16.60
2018-08-24T03:07:45.946Z,16.60
2018-08-24T03:10:17.067Z,16.60
2018-08-24T03:12:47.954Z,16.70
2018-08-24T03:15:18.927Z,16.70
2018-08-24T03:20:24.901Z,16.70
2018-08-24T03:22:56.434Z,16.80
2018-08-24T03:25:27.357Z,16.80
2018-08-24T03:27:58.294Z,16.70
2018-08-24T03:30:29.355Z,16.70
2018-08-24T03:33:00.228Z,16.60
2018-08-24T03:35:31.316Z,16.60
2018-08-24T03:38:02.749Z,16.50
2018-08-24T03:40:33.895Z,16.40
2018-08-24T03:43:04.987Z,16.40
2018-08-24T03:45:36.107Z,16.40
2018-08-24T03:48:07.102Z,16.30
2018-08-24T03:50:37.982Z,16.30
2018-08-24T03:53:08.989Z,16.30
2018-08-24T03:55:40.110Z,16.20
2018-08-24T03:58:11.360Z,16.30
2018-08-24T04:00:42.531Z,16.30
2018-08-24T04:03:14.715Z,16.30
2018-08-24T04:05:45.654Z,16.30
2018-08-24T04:08:16.525Z,16.40
2018-08-24T04:10:47.491Z,16.40
2018-08-24T04:13:18.420Z,16.30
2018-08-24T04:15:49.509Z,16.30
2018-08-24T04:18:20.596Z,16.30
2018-08-24T04:20:51.448Z,16.30
2018-08-24T04:23:22.528Z,16.20
2018-08-24T04:25:53.442Z,16.10
2018-08-24T04:28:24.386Z,16.10
2018-08-24T04:30:55.359Z,16.10
2018-08-24T04:33:26.504Z,16.00
2018-08-24T04:35:57.405Z,16.00
2018-08-24T04:38:28.464Z,15.90
2018-08-24T04:40:59.383Z,15.90
2018-08-24T04:46:09.925Z,15.80
2018-08-24T04:48:40.818Z,15.80
2018-08-24T04:51:11.690Z,15.80
2018-08-24T04:53:42.703Z,15.70
2018-08-24T04:56:13.601Z,15.70
2018-08-24T04:58:44.509Z,15.70
2018-08-24T05:01:15.464Z,15.70
2018-08-24T05:03:46.574Z,15.60
2018-08-24T05:06:17.552Z,15.50
2018-08-24T05:08:48.907Z,15.50
2018-08-24T05:11:20.038Z,15.60
2018-08-24T05:13:50.932Z,15.50
2018-08-24T05:16:22.182Z,15.50
2018-08-24T05:18:53.216Z,15.40
2018-08-24T05:21:24.383Z,15.40
2018-08-24T05:23:55.370Z,15.40
2018-08-24T05:26:26.263Z,15.40
2018-08-24T05:28:57.271Z,15.30
2018-08-24T05:31:28.164Z,15.20
2018-08-24T05:33:59.272Z,15.20
2018-08-24T05:36:30.192Z,15.10
2018-08-24T05:39:01.102Z,15.00
2018-08-24T05:41:32.456Z,14.90
2018-08-24T05:44:03.432Z,14.90
2018-08-24T05:46:34.560Z,14.80
2018-08-24T05:49:05.525Z,14.60
2018-08-24T05:51:36.537Z,14.60
2018-08-24T05:54:07.449Z,14.70
2018-08-24T05:56:38.370Z,14.70
2018-08-24T05:59:09.445Z,14.70
2018-08-24T06:01:40.419Z,14.80
2018-08-24T06:04:11.537Z,14.80
2018-08-24T06:06:42.541Z,14.80
2018-08-24T06:09:17.259Z,14.80
2018-08-24T06:11:48.461Z,14.80
2018-08-24T06:14:19.505Z,14.80
2018-08-24T06:16:55.214Z,14.80
2018-08-24T06:19:26.934Z,14.70
2018-08-24T06:21:57.979Z,14.80
2018-08-24T06:24:28.919Z,14.80
2018-08-24T06:27:00.080Z,14.80
2018-08-24T06:29:31.096Z,14.80
2018-08-24T06:32:02.180Z,14.80
2018-08-24T06:34:33.169Z,14.90
2018-08-24T06:37:04.341Z,14.90
2018-08-24T06:39:35.824Z,14.90
2018-08-24T06:42:07.303Z,14.90
2018-08-24T06:44:38.456Z,14.90
2018-08-24T06:47:09.793Z,14.80
2018-08-24T06:49:40.860Z,14.80
2018-08-24T06:52:12.126Z,14.80
2018-08-24T06:54:43.265Z,14.90
2018-08-24T06:57:14.313Z,14.90
2018-08-24T06:59:45.293Z,14.90
2018-08-24T07:02:16.518Z,14.90
2018-08-24T07:04:47.960Z,14.90
2018-08-24T07:07:19.373Z,14.90
2018-08-24T07:09:50.868Z,14.90
2018-08-24T07:12:22.298Z,15.00
2018-08-24T07:14:53.708Z,15.00
2018-08-24T07:17:29.981Z,15.00
2018-08-24T07:20:01.253Z,15.00
2018-08-24T07:22:32.997Z,14.90
2018-08-24T07:25:04.293Z,14.90
2018-08-24T07:27:35.734Z,14.90
2018-08-24T07:30:07.549Z,15.00
2018-08-24T07:32:39.113Z,14.90
2018-08-24T07:35:10.881Z,14.90
2018-08-24T07:37:42.323Z,14.80
2018-08-24T07:40:14.054Z,14.80
2018-08-24T07:42:45.452Z,14.70
2018-08-24T07:45:16.739Z,14.70
2018-08-24T07:47:48.543Z,14.70
2018-08-24T07:50:19.754Z,14.70
2018-08-24T07:52:51.221Z,14.70
2018-08-24T07:55:22.771Z,14.60
2018-08-24T07:57:54.132Z,14.50
2018-08-24T08:00:25.540Z,14.40
2018-08-24T08:02:57.219Z,14.40
2018-08-24T08:05:28.886Z,14.40
2018-08-24T08:08:00.335Z,14.40
2018-08-24T08:10:36.501Z,14.40
2018-08-24T08:13:08.397Z,14.30
2018-08-24T08:15:40.115Z,14.20
2018-08-24T08:18:11.440Z,14.20
2018-08-24T08:20:42.828Z,14.20
2018-08-24T08:23:14.145Z,14.20
2018-08-24T08:25:45.580Z,14.20
2018-08-24T08:28:17.055Z,14.20
2018-08-24T08:30:48.431Z,14.20
2018-08-24T08:33:19.854Z,14.20
2018-08-24T08:35:51.556Z,14.20
2018-08-24T08:38:22.599Z,14.20
2018-08-24T08:40:53.650Z,14.20
2018-08-24T08:43:24.820Z,14.20
2018-08-24T08:45:56.179Z,14.30
2018-08-24T08:48:27.137Z,14.30
2018-08-24T08:50:58.144Z,14.30
2018-08-24T08:53:29.355Z,14.30
2018-08-24T08:56:00.410Z,14.30
2018-08-24T08:58:31.519Z,14.30
2018-08-24T09:01:02.584Z,14.30
2018-08-24T09:03:33.796Z,14.30
2018-08-24T09:06:05.335Z,14.30
2018-08-24T09:08:36.408Z,14.40
2018-08-24T09:11:07.403Z,14.40
2018-08-24T09:13:38.498Z,14.30
2018-08-24T09:16:09.568Z,14.30
2018-08-24T09:18:45.209Z,14.40
2018-08-24T09:21:20.868Z,14.40
2018-08-24T09:23:56.377Z,14.50
2018-08-24T09:28:36.670Z,14.50
2018-08-24T09:31:12.085Z,14.40
2018-08-24T09:33:43.127Z,14.50
2018-08-24T09:36:20.500Z,14.50
2018-08-24T09:38:53.205Z,14.50
2018-08-24T09:41:24.550Z,14.50
2018-08-24T09:44:01.298Z,14.60
2018-08-24T09:46:37.241Z,14.60
2018-08-24T09:49:13.413Z,14.50
2018-08-24T09:51:45.253Z,14.50
2018-08-24T09:54:16.697Z,14.50
2018-08-24T09:56:48.439Z,14.50
2018-08-24T09:59:20.241Z,14.50
2018-08-24T10:01:56.361Z,14.40
2018-08-24T10:04:32.502Z,14.40
2018-08-24T10:07:08.508Z,14.40
2018-08-24T10:09:39.872Z,14.30
2018-08-24T10:12:11.488Z,14.30
2018-08-24T10:14:43.017Z,14.20
2018-08-24T10:17:14.302Z,14.20
2018-08-24T10:19:45.599Z,14.20
2018-08-24T10:22:17.017Z,14.20
2018-08-24T10:24:48.210Z,14.10
2018-08-24T10:27:20.055Z,14.10
2018-08-24T10:29:51.674Z,14.10
2018-08-24T10:32:23.380Z,14.20
2018-08-24T10:34:54.766Z,14.20
2018-08-24T10:37:26.621Z,14.20
2018-08-24T10:39:57.967Z,14.30
2018-08-24T10:42:29.480Z,14.30
2018-08-24T10:45:00.976Z,14.40
2018-08-24T10:47:32.280Z,14.40
2018-08-24T10:50:03.584Z,14.50
2018-08-24T10:52:35.153Z,14.60
2018-08-24T10:55:07.023Z,14.60
2018-08-24T10:57:38.628Z,14.70
2018-08-24T11:00:09.916Z,14.80
2018-08-24T11:02:41.032Z,14.90
2018-08-24T11:05:12.720Z,15.00
2018-08-24T11:07:44.335Z,15.10
2018-08-24T11:10:15.689Z,15.20
2018-08-24T11:12:47.139Z,15.40
2018-08-24T11:15:18.636Z,15.40
2018-08-24T11:17:54.815Z,15.50
2018-08-24T11:20:26.427Z,15.60
2018-08-24T11:22:58.072Z,15.70
2018-08-24T11:25:29.392Z,15.80
2018-08-24T11:28:01.373Z,15.80
2018-08-24T11:30:32.832Z,15.90
2018-08-24T11:33:04.328Z,16.00
2018-08-24T11:35:35.756Z,16.10
2018-08-24T11:38:07.102Z,16.20
2018-08-24T11:40:38.518Z,16.30
2018-08-24T11:43:09.879Z,16.30
2018-08-24T11:45:41.632Z,16.30
2018-08-24T11:48:13.194Z,16.40
2018-08-24T11:50:44.788Z,16.50
2018-08-24T11:53:16.082Z,16.60
2018-08-24T11:58:13.267Z,16.70
2018-08-24T12:00:45.154Z,16.70
2018-08-24T12:03:16.970Z,16.80
2018-08-24T12:05:48.224Z,16.80
2018-08-24T12:08:19.706Z,16.90
2018-08-24T12:10:51.162Z,17.00
2018-08-24T12:13:22.639Z,17.00
2018-08-24T12:15:53.838Z,17.20
2018-08-24T12:18:25.564Z,17.20
2018-08-24T12:20:57.351Z,17.30
2018-08-24T12:23:28.939Z,17.40
2018-08-24T12:26:00.442Z,17.50
2018-08-24T12:28:31.884Z,17.60
2018-08-24T12:31:03.093Z,17.70
2018-08-24T12:33:34.480Z,17.70
2018-08-24T12:36:06.329Z,17.80
2018-08-24T12:38:37.369Z,17.90
2018-08-24T12:41:08.350Z,18.00
2018-08-24T12:43:39.524Z,18.00
2018-08-24T12:46:11.131Z,18.20
2018-08-24T12:48:42.387Z,18.30
2018-08-24T12:51:13.341Z,18.40
2018-08-24T12:53:45.005Z,18.50
2018-08-24T12:56:20.181Z,18.60
2018-08-24T12:58:52.310Z,18.70
2018-08-24T13:01:23.185Z,18.80
2018-08-24T13:03:54.205Z,18.90
2018-08-24T13:06:25.094Z,19.10
2018-08-24T13:08:56.485Z,19.30
2018-08-24T13:11:27.571Z,19.50
2018-08-24T13:17:02.085Z,19.50
2018-08-24T13:19:33.028Z,19.60
2018-08-24T13:22:04.232Z,19.70
2018-08-24T13:24:35.559Z,19.80
2018-08-24T13:27:06.979Z,19.80
2018-08-24T13:29:37.966Z,19.90
2018-08-24T13:32:08.969Z,20.00
2018-08-24T13:34:40.002Z,20.20
2018-08-24T13:37:11.137Z,20.20
2018-08-24T13:39:42.099Z,20.30
2018-08-24T13:42:13.161Z,20.40
2018-08-24T13:44:44.896Z,20.60
2018-08-24T13:47:16.731Z,20.60
2018-08-24T13:49:47.781Z,20.70
2018-08-24T13:52:18.741Z,20.80
2018-08-24T13:54:49.735Z,20.90
2018-08-24T13:57:20.662Z,21.00
2018-08-24T13:59:52.119Z,21.20
2018-08-24T14:02:23.131Z,21.30
2018-08-24T14:04:54.083Z,21.40
2018-08-24T14:07:25.290Z,21.60
2018-08-24T14:09:56.662Z,21.70
2018-08-24T14:12:27.973Z,21.90
2018-08-24T14:14:59.203Z,22.10
2018-08-24T14:17:30.289Z,22.10
2018-08-24T14:20:01.294Z,22.20
2018-08-24T14:22:32.364Z,22.40
2018-08-24T14:25:03.814Z,22.50
2018-08-24T14:27:34.844Z,22.60
2018-08-24T14:30:06.071Z,22.70
2018-08-24T14:32:37.551Z,22.80
2018-08-24T14:35:08.627Z,22.90
2018-08-24T14:37:39.750Z,23.00
2018-08-24T14:40:10.820Z,23.00
2018-08-24T14:42:42.151Z,23.00
2018-08-24T14:45:13.422Z,23.20
2018-08-24T14:47:44.405Z,23.30
2018-08-24T14:50:15.641Z,23.50
2018-08-24T14:52:46.690Z,23.60
2018-08-24T14:55:17.644Z,23.60
2018-08-24T14:57:48.977Z,23.70
2018-08-24T15:00:20.422Z,23.80
2018-08-24T15:02:51.540Z,24.00
2018-08-24T15:05:22.568Z,24.00
2018-08-24T15:07:53.587Z,24.10
2018-08-24T15:10:24.619Z,24.30
2018-08-24T15:12:55.586Z,24.50
2018-08-24T15:15:26.884Z,24.50
2018-08-24T15:17:57.992Z,24.60
2018-08-24T15:20:29.204Z,24.80
2018-08-24T15:23:00.433Z,24.80
2018-08-24T15:25:31.453Z,24.80
2018-08-24T15:28:02.545Z,24.80
2018-08-24T15:30:34.103Z,25.00
2018-08-24T15:33:05.625Z,24.90
2018-08-24T15:35:36.786Z,25.20
2018-08-24T15:38:07.912Z,25.60
2018-08-24T15:40:39.375Z,25.40
2018-08-24T15:43:10.855Z,25.30
2018-08-24T15:45:42.056Z,25.30
2018-08-24T15:48:13.077Z,25.50
2018-08-24T15:50:44.111Z,25.70
2018-08-24T15:53:15.178Z,25.60
2018-08-24T15:55:46.399Z,25.80
2018-08-24T15:58:17.518Z,25.90
2018-08-24T16:00:48.710Z,26.00
2018-08-24T16:03:20.301Z,26.20
2018-08-24T16:05:51.246Z,26.50
2018-08-24T16:08:22.757Z,26.50
2018-08-24T16:10:54.171Z,26.60
2018-08-24T16:13:25.941Z,26.60
2018-08-24T16:15:57.403Z,26.70
2018-08-24T16:18:28.872Z,26.70
2018-08-24T16:21:00.592Z,26.80
2018-08-24T16:23:32.464Z,27.00
2018-08-24T16:26:03.935Z,26.90
2018-08-24T16:28:36.259Z,27.00
2018-08-24T16:31:07.985Z,27.30
2018-08-24T16:33:40.152Z,27.40
2018-08-24T16:36:16.162Z,27.50
2018-08-24T16:38:47.719Z,27.50
2018-08-24T16:41:22.039Z,27.40
2018-08-24T16:43:53.638Z,27.50
2018-08-24T16:46:25.042Z,27.60
2018-08-24T16:48:56.562Z,27.80
2018-08-24T16:51:28.417Z,27.70
2018-08-24T16:53:59.809Z,27.70
2018-08-24T16:56:31.284Z,27.70
2018-08-24T16:59:03.345Z,27.90
2018-08-24T17:01:34.612Z,27.90
2018-08-24T17:04:05.764Z,28.20
2018-08-24T17:06:37.264Z,28.30
2018-08-24T17:09:12.899Z,28.00
2018-08-24T17:11:44.016Z,28.00
2018-08-24T17:14:15.342Z,28.10
2018-08-24T17:16:46.829Z,28.30
2018-08-24T17:19:18.036Z,28.30
2018-08-24T17:21:49.238Z,28.60
2018-08-24T17:24:20.188Z,28.40
2018-08-24T17:26:51.131Z,28.70
2018-08-24T17:29:22.073Z,28.90
2018-08-24T17:31:53.307Z,29.00
2018-08-24T17:34:24.225Z,29.00
2018-08-24T17:36:55.276Z,29.20
2018-08-24T17:39:26.544Z,29.30
2018-08-24T17:41:58.438Z,29.10
2018-08-24T17:44:29.520Z,29.10
2018-08-24T17:47:00.488Z,29.40
2018-08-24T17:49:31.537Z,29.60
2018-08-24T17:52:02.579Z,29.70
2018-08-24T17:54:33.477Z,29.60
2018-08-24T17:57:04.358Z,29.30
2018-08-24T17:59:36.308Z,29.60
2018-08-24T18:02:07.959Z,29.90
2018-08-24T18:04:38.959Z,29.90
2018-08-24T18:07:09.934Z,30.10
2018-08-24T18:09:41.039Z,30.00
2018-08-24T18:12:12.037Z,30.10
2018-08-24T18:14:43.304Z,30.20
2018-08-24T18:17:15.102Z,30.40
2018-08-24T18:19:46.772Z,30.20
2018-08-24T18:22:18.870Z,30.20
2018-08-24T18:24:50.381Z,30.20
2018-08-24T18:27:22.091Z,30.10
2018-08-24T18:29:53.418Z,30.00
2018-08-24T18:32:24.804Z,30.10
2018-08-24T18:34:56.269Z,30.20
2018-08-24T18:37:28.180Z,30.50
2018-08-24T18:39:59.622Z,30.50
2018-08-24T18:42:31.233Z,30.30
2018-08-24T18:45:02.435Z,30.10
2018-08-24T18:47:33.910Z,30.10
2018-08-24T18:50:05.669Z,30.30
2018-08-24T18:52:36.976Z,30.50
2018-08-24T18:55:08.981Z,30.30
2018-08-24T18:57:40.592Z,30.70
2018-08-24T19:00:12.280Z,30.70
2018-08-24T19:02:43.675Z,30.50
2018-08-24T19:05:15.655Z,30.90
2018-08-24T19:07:47.319Z,30.50
2018-08-24T19:10:18.847Z,30.40
2018-08-24T19:12:50.534Z,30.10
2018-08-24T19:15:22.339Z,30.10
2018-08-24T19:17:58.259Z,30.20
2018-08-24T19:20:34.130Z,29.80
2018-08-24T19:23:05.232Z,29.50
2018-08-24T19:25:36.808Z,29.50
2018-08-24T19:28:13.052Z,29.70
2018-08-24T19:30:44.353Z,29.80
2018-08-24T19:33:15.844Z,30.00
2018-08-24T19:35:46.828Z,29.90
2018-08-24T19:38:18.539Z,29.90
2018-08-24T19:40:54.264Z,30.00
2018-08-24T19:43:25.711Z,30.10
2018-08-24T19:45:57.107Z,30.10
2018-08-24T19:48:32.793Z,29.30
2018-08-24T19:51:04.199Z,29.30
2018-08-24T19:53:35.388Z,29.10
2018-08-24T19:56:06.687Z,29.30
2018-08-24T19:58:42.810Z,29.90
2018-08-24T20:01:13.882Z,29.90
2018-08-24T20:03:44.885Z,30.20
2018-08-24T20:06:20.637Z,30.70
2018-08-24T20:08:56.388Z,30.10
2018-08-24T20:11:27.430Z,29.40
2018-08-24T20:13:58.488Z,29.60
2018-08-24T20:16:34.329Z,30.20
2018-08-24T20:19:05.506Z,30.30
2018-08-24T20:21:36.613Z,30.40
2018-08-24T20:24:07.712Z,30.40
2018-08-24T20:26:38.803Z,30.10
2018-08-24T20:29:09.963Z,30.00
2018-08-24T20:31:40.956Z,29.90
2018-08-24T20:34:11.995Z,29.90
2018-08-24T20:36:43.246Z,29.70
2018-08-24T20:39:14.349Z,29.60
2018-08-24T20:41:46.672Z,29.50
2018-08-24T20:44:18.358Z,29.80
2018-08-24T20:46:49.616Z,29.80
2018-08-24T20:49:20.730Z,29.80
2018-08-24T20:51:52.017Z,29.80
2018-08-24T20:54:22.979Z,29.80
2018-08-24T20:56:54.029Z,29.80
2018-08-24T20:59:25.048Z,29.90
2018-08-24T21:01:56.050Z,29.70
2018-08-24T21:04:27.142Z,29.70
2018-08-24T21:06:58.245Z,29.50
2018-08-24T21:09:29.652Z,29.50
2018-08-24T21:12:00.819Z,29.50
2018-08-24T21:14:32.586Z,29.30
2018-08-24T21:17:03.622Z,29.10
2018-08-24T21:19:34.715Z,29.20
2018-08-24T21:22:05.783Z,29.40
2018-08-24T21:24:37.123Z,29.40
2018-08-24T21:27:08.513Z,29.40
2018-08-24T21:29:39.580Z,29.40
2018-08-24T21:32:10.634Z,29.40
2018-08-24T21:34:41.641Z,29.40
2018-08-24T21:37:12.896Z,29.30
2018-08-24T21:39:43.948Z,29.20
2018-08-24T21:42:15.191Z,29.10
2018-08-24T21:44:46.656Z,29.30
2018-08-24T21:47:17.689Z,29.20
2018-08-24T21:49:48.732Z,29.20
2018-08-24T21:52:20.244Z,29.00
2018-08-24T21:54:51.504Z,28.70
2018-08-24T21:57:22.491Z,28.40
2018-08-24T21:59:53.503Z,28.20
2018-08-24T22:02:24.615Z,28.20
2018-08-24T22:04:55.653Z,28.30
2018-08-24T22:07:26.669Z,28.30
2018-08-24T22:09:57.684Z,28.40
2018-08-24T22:12:28.837Z,28.60
2018-08-24T22:14:59.883Z,28.70
2018-08-24T22:17:31.176Z,28.70
2018-08-24T22:20:02.712Z,28.60
2018-08-24T22:22:34.720Z,28.30
2018-08-24T22:25:05.952Z,28.20
2018-08-24T22:27:37.776Z,27.80
2018-08-24T22:30:09.760Z,27.30
2018-08-24T22:32:41.115Z,26.70
2018-08-24T22:35:12.406Z,26.50
2018-08-24T22:37:43.761Z,26.50
2018-08-24T22:40:15.286Z,26.70
2018-08-24T22:42:46.762Z,26.60
2018-08-24T22:45:18.853Z,26.40
2018-08-24T22:47:50.318Z,26.10
2018-08-24T22:50:21.609Z,25.90
2018-08-24T22:52:52.942Z,26.00
2018-08-24T22:55:24.320Z,26.00
2018-08-24T22:57:55.711Z,25.80
2018-08-24T23:00:27.211Z,25.60
2018-08-24T23:02:58.475Z,25.60
2018-08-24T23:05:29.791Z,25.60
2018-08-24T23:08:01.073Z,25.60
2018-08-24T23:10:32.644Z,25.60
2018-08-24T23:13:04.510Z,25.50
2018-08-24T23:15:35.843Z,25.40
2018-08-24T23:18:06.986Z,25.30
2018-08-24T23:20:38.414Z,25.20
2018-08-24T23:23:10.359Z,25.00
2018-08-24T23:25:41.792Z,24.90
2018-08-24T23:28:14.308Z,24.70
2018-08-24T23:30:46.198Z,24.60
2018-08-24T23:33:17.893Z,24.40
2018-08-24T23:35:52.750Z,24.20
2018-08-24T23:38:24.107Z,24.00
2018-08-24T23:40:55.697Z,23.80
2018-08-24T23:43:27.127Z,23.50
2018-08-24T23:45:59.024Z,23.30
2018-08-24T23:48:30.390Z,23.10
2018-08-24T23:51:01.929Z,22.90
2018-08-24T23:53:33.915Z,22.70
2018-08-24T23:56:05.552Z,22.60
2018-08-24T23:58:37.239Z,22.40
